sensor_id;sensor_type;location;lat;lon;timestamp;pressure;altitude;pressure_sealevel;temperature;humidity
77149;BME280;66122;47.130;16.844;2023-03-07T00:00:13;98762.50;;;4.59;87.15
77149;BME280;66122;47.130;16.844;2023-03-07T00:10:16;98752.94;;;4.58;88.64
77149;BME280;66122;47.130;16.844;2023-03-07T00:20:18;98744.16;;;4.59;88.60
77149;BME280;66122;47.130;16.844;2023-03-07T00:30:21;98748.47;;;4.60;87.91
77149;BME280;66122;47.130;16.844;2023-03-07T00:40:24;98733.78;;;4.56;88.45
77149;BME280;66122;47.130;16.844;2023-03-07T00:50:26;98747.53;;;4.24;91.85
77149;BME280;66122;47.130;16.844;2023-03-07T01:00:29;98729.47;;;4.37;90.55
77149;BME280;66122;47.130;16.844;2023-03-07T01:10:32;98733.44;;;4.45;88.84
77149;BME280;66122;47.130;16.844;2023-03-07T01:20:36;98718.91;;;4.38;90.45
77149;BME280;66122;47.130;16.844;2023-03-07T01:30:39;98719.31;;;4.29;90.30
77149;BME280;66122;47.130;16.844;2023-03-07T01:40:42;98705.41;;;4.27;89.86
77149;BME280;66122;47.130;16.844;2023-03-07T01:50:45;98720.72;;;4.36;89.86
77149;BME280;66122;47.130;16.844;2023-03-07T02:00:48;98696.06;;;4.40;90.14
77149;BME280;66122;47.130;16.844;2023-03-07T02:10:51;98675.94;;;4.22;91.10
77149;BME280;66122;47.130;16.844;2023-03-07T02:31:45;98680.66;;;3.95;92.76
77149;BME280;66122;47.130;16.844;2023-03-07T02:41:49;98692.06;;;3.94;92.04
77149;BME280;66122;47.130;16.844;2023-03-07T02:52:02;98686.66;;;3.97;91.95
77149;BME280;66122;47.130;16.844;2023-03-07T03:02:06;98695.66;;;3.91;92.07
77149;BME280;66122;47.130;16.844;2023-03-07T03:12:08;98692.41;;;3.86;92.59
77149;BME280;66122;47.130;16.844;2023-03-07T03:22:11;98689.25;;;3.78;91.99
77149;BME280;66122;47.130;16.844;2023-03-07T03:32:18;98689.91;;;3.83;91.74
77149;BME280;66122;47.130;16.844;2023-03-07T03:42:20;98688.75;;;3.70;94.70
77149;BME280;66122;47.130;16.844;2023-03-07T03:52:23;98685.31;;;3.68;94.13
77149;BME280;66122;47.130;16.844;2023-03-07T04:02:25;98679.50;;;3.62;94.77
77149;BME280;66122;47.130;16.844;2023-03-07T04:12:32;98691.34;;;3.70;93.36
77149;BME280;66122;47.130;16.844;2023-03-07T04:22:35;98711.25;;;3.54;96.02
77149;BME280;66122;47.130;16.844;2023-03-07T04:32:38;98693.94;;;3.51;96.24
77149;BME280;66122;47.130;16.844;2023-03-07T04:42:41;98698.75;;;3.61;95.15
77149;BME280;66122;47.130;16.844;2023-03-07T04:52:45;98692.22;;;3.71;93.04
77149;BME280;66122;47.130;16.844;2023-03-07T05:02:49;98708.44;;;3.79;92.94
77149;BME280;66122;47.130;16.844;2023-03-07T05:12:53;98706.03;;;3.74;95.19
77149;BME280;66122;47.130;16.844;2023-03-07T05:22:55;98718.09;;;3.58;100.00
77149;BME280;66122;47.130;16.844;2023-03-07T05:32:58;98725.09;;;3.58;100.00
77149;BME280;66122;47.130;16.844;2023-03-07T05:43:02;98735.63;;;3.56;100.00
77149;BME280;66122;47.130;16.844;2023-03-07T05:53:05;98746.22;;;3.53;100.00
77149;BME280;66122;47.130;16.844;2023-03-07T06:03:08;98753.00;;;3.59;100.00
77149;BME280;66122;47.130;16.844;2023-03-07T06:13:14;98756.31;;;3.62;100.00
77149;BME280;66122;47.130;16.844;2023-03-07T06:23:17;98767.59;;;3.64;100.00
77149;BME280;66122;47.130;16.844;2023-03-07T06:33:21;98755.94;;;3.51;100.00
77149;BME280;66122;47.130;16.844;2023-03-07T06:43:24;98769.31;;;3.65;100.00
77149;BME280;66122;47.130;16.844;2023-03-07T06:53:27;98780.16;;;3.56;100.00
77149;BME280;66122;47.130;16.844;2023-03-07T07:03:29;98788.13;;;3.53;100.00
77149;BME280;66122;47.130;16.844;2023-03-07T07:13:32;98784.06;;;3.46;100.00
77149;BME280;66122;47.130;16.844;2023-03-07T07:23:36;98778.16;;;3.41;100.00
77149;BME280;66122;47.130;16.844;2023-03-07T07:33:40;98783.84;;;3.30;100.00
77149;BME280;66122;47.130;16.844;2023-03-07T07:43:43;98782.09;;;3.31;100.00
77149;BME280;66122;47.130;16.844;2023-03-07T07:53:56;98784.44;;;3.37;100.00
77149;BME280;66122;47.130;16.844;2023-03-07T08:03:58;98764.47;;;3.34;100.00
77149;BME280;66122;47.130;16.844;2023-03-07T08:14:02;98793.50;;;3.50;100.00
77149;BME280;66122;47.130;16.844;2023-03-07T08:24:05;98806.59;;;3.50;100.00
77149;BME280;66122;47.130;16.844;2023-03-07T08:34:07;98796.38;;;3.44;100.00
77149;BME280;66122;47.130;16.844;2023-03-07T08:44:10;98780.72;;;3.42;100.00
77149;BME280;66122;47.130;16.844;2023-03-07T08:54:12;98786.28;;;3.35;100.00
77149;BME280;66122;47.130;16.844;2023-03-07T09:04:15;98786.50;;;3.50;100.00
77149;BME280;66122;47.130;16.844;2023-03-07T09:14:18;98767.03;;;3.36;100.00
77149;BME280;66122;47.130;16.844;2023-03-07T09:24:20;98792.16;;;3.40;100.00
77149;BME280;66122;47.130;16.844;2023-03-07T09:34:22;98805.50;;;3.34;100.00
77149;BME280;66122;47.130;16.844;2023-03-07T09:54:58;98771.72;;;3.28;100.00
77149;BME280;66122;47.130;16.844;2023-03-07T10:05:10;98794.19;;;3.33;100.00
77149;BME280;66122;47.130;16.844;2023-03-07T10:25:26;98779.50;;;3.51;100.00
77149;BME280;66122;47.130;16.844;2023-03-07T10:35:41;98735.25;;;3.65;100.00
77149;BME280;66122;47.130;16.844;2023-03-07T10:45:44;98744.81;;;3.66;98.55
77149;BME280;66122;47.130;16.844;2023-03-07T10:55:46;98725.09;;;3.78;97.85
77149;BME280;66122;47.130;16.844;2023-03-07T11:05:49;98716.84;;;3.67;99.93
77149;BME280;66122;47.130;16.844;2023-03-07T11:16:07;98697.31;;;3.53;99.43
77149;BME280;66122;47.130;16.844;2023-03-07T11:26:16;98684.63;;;3.65;100.00
77149;BME280;66122;47.130;16.844;2023-03-07T11:56:59;98653.66;;;3.74;100.00
77149;BME280;66122;47.130;16.844;2023-03-07T12:38:08;98616.56;;;4.21;95.99
77149;BME280;66122;47.130;16.844;2023-03-07T12:48:21;98611.44;;;4.18;95.71
77149;BME280;66122;47.130;16.844;2023-03-07T13:08:38;98576.16;;;4.06;95.97
77149;BME280;66122;47.130;16.844;2023-03-07T13:18:41;98570.50;;;4.15;95.89
77149;BME280;66122;47.130;16.844;2023-03-07T13:28:46;98575.41;;;4.40;96.59
77149;BME280;66122;47.130;16.844;2023-03-07T13:38:53;98553.50;;;4.41;95.55
77149;BME280;66122;47.130;16.844;2023-03-07T13:59:01;98534.47;;;4.55;94.14
77149;BME280;66122;47.130;16.844;2023-03-07T14:09:05;98518.28;;;4.64;94.52
77149;BME280;66122;47.130;16.844;2023-03-07T14:19:34;98507.16;;;4.93;94.51
77149;BME280;66122;47.130;16.844;2023-03-07T14:29:51;98487.34;;;4.88;94.65
77149;BME280;66122;47.130;16.844;2023-03-07T15:10:20;98412.38;;;5.15;94.96
77149;BME280;66122;47.130;16.844;2023-03-07T15:20:25;98418.47;;;5.16;95.98
77149;BME280;66122;47.130;16.844;2023-03-07T15:30:34;98414.66;;;5.21;97.85
77149;BME280;66122;47.130;16.844;2023-03-07T15:40:38;98385.63;;;5.24;98.02
77149;BME280;66122;47.130;16.844;2023-03-07T15:50:41;98389.34;;;5.20;99.83
77149;BME280;66122;47.130;16.844;2023-03-07T16:00:44;98366.97;;;5.13;100.00
77149;BME280;66122;47.130;16.844;2023-03-07T16:11:01;98369.00;;;5.08;100.00
77149;BME280;66122;47.130;16.844;2023-03-07T16:21:05;98364.03;;;5.03;100.00
77149;BME280;66122;47.130;16.844;2023-03-07T16:31:12;98362.25;;;5.04;100.00
77149;BME280;66122;47.130;16.844;2023-03-07T16:41:18;98371.03;;;5.03;100.00
77149;BME280;66122;47.130;16.844;2023-03-07T16:51:22;98346.50;;;5.04;100.00
77149;BME280;66122;47.130;16.844;2023-03-07T17:01:27;98341.91;;;5.07;100.00
77149;BME280;66122;47.130;16.844;2023-03-07T17:11:30;98339.28;;;5.07;100.00
77149;BME280;66122;47.130;16.844;2023-03-07T17:21:34;98339.19;;;5.09;100.00
77149;BME280;66122;47.130;16.844;2023-03-07T17:31:36;98352.25;;;5.10;100.00
77149;BME280;66122;47.130;16.844;2023-03-07T17:41:39;98346.03;;;5.11;100.00
77149;BME280;66122;47.130;16.844;2023-03-07T17:51:42;98348.09;;;5.22;100.00
77149;BME280;66122;47.130;16.844;2023-03-07T18:01:45;98335.97;;;5.20;100.00
77149;BME280;66122;47.130;16.844;2023-03-07T18:11:48;98286.28;;;5.01;100.00
77149;BME280;66122;47.130;16.844;2023-03-07T18:21:51;98317.16;;;5.27;100.00
77149;BME280;66122;47.130;16.844;2023-03-07T18:31:54;98330.41;;;5.26;100.00
77149;BME280;66122;47.130;16.844;2023-03-07T18:41:57;98301.59;;;5.24;100.00
77149;BME280;66122;47.130;16.844;2023-03-07T18:52:00;98308.13;;;5.17;100.00
77149;BME280;66122;47.130;16.844;2023-03-07T19:02:03;98293.06;;;4.89;100.00
77149;BME280;66122;47.130;16.844;2023-03-07T19:12:06;98290.44;;;4.56;100.00
77149;BME280;66122;47.130;16.844;2023-03-07T19:22:08;98278.84;;;4.45;100.00
77149;BME280;66122;47.130;16.844;2023-03-07T19:32:13;98285.91;;;4.27;100.00
77149;BME280;66122;47.130;16.844;2023-03-07T19:42:19;98303.44;;;4.42;100.00
77149;BME280;66122;47.130;16.844;2023-03-07T19:52:22;98306.59;;;4.49;100.00
77149;BME280;66122;47.130;16.844;2023-03-07T20:02:25;98321.94;;;4.56;100.00
77149;BME280;66122;47.130;16.844;2023-03-07T20:12:31;98313.78;;;4.45;100.00
77149;BME280;66122;47.130;16.844;2023-03-07T20:22:34;98316.03;;;4.36;100.00
77149;BME280;66122;47.130;16.844;2023-03-07T20:32:37;98311.16;;;4.45;100.00
77149;BME280;66122;47.130;16.844;2023-03-07T20:42:41;98312.31;;;4.40;100.00
77149;BME280;66122;47.130;16.844;2023-03-07T20:52:44;98318.66;;;4.36;100.00
77149;BME280;66122;47.130;16.844;2023-03-07T21:02:47;98318.00;;;4.32;100.00
77149;BME280;66122;47.130;16.844;2023-03-07T21:13:06;98332.69;;;4.52;100.00
77149;BME280;66122;47.130;16.844;2023-03-07T21:23:09;98346.75;;;4.66;100.00
77149;BME280;66122;47.130;16.844;2023-03-07T21:33:12;98378.78;;;4.73;100.00
77149;BME280;66122;47.130;16.844;2023-03-07T21:43:14;98373.19;;;4.79;100.00
77149;BME280;66122;47.130;16.844;2023-03-07T21:53:18;98373.56;;;4.89;100.00
77149;BME280;66122;47.130;16.844;2023-03-07T22:03:22;98377.19;;;4.86;100.00
77149;BME280;66122;47.130;16.844;2023-03-07T22:13:25;98365.25;;;4.81;100.00
77149;BME280;66122;47.130;16.844;2023-03-07T22:23:28;98382.66;;;4.66;100.00
77149;BME280;66122;47.130;16.844;2023-03-07T22:33:30;98370.78;;;4.59;100.00
77149;BME280;66122;47.130;16.844;2023-03-07T22:43:34;98375.25;;;4.57;100.00
77149;BME280;66122;47.130;16.844;2023-03-07T22:53:37;98360.38;;;4.40;100.00
77149;BME280;66122;47.130;16.844;2023-03-07T23:03:39;98369.56;;;4.14;100.00
77149;BME280;66122;47.130;16.844;2023-03-07T23:13:43;98373.19;;;3.95;100.00
77149;BME280;66122;47.130;16.844;2023-03-07T23:23:45;98359.28;;;3.75;100.00
77149;BME280;66122;47.130;16.844;2023-03-07T23:33:48;98366.22;;;3.59;100.00
77149;BME280;66122;47.130;16.844;2023-03-07T23:43:52;98381.88;;;3.42;100.00
77149;BME280;66122;47.130;16.844;2023-03-07T23:53:55;98402.19;;;3.37;100.00
